sensor_id;sensor_type;location;lat;lon;timestamp;pressure;altitude;pressure_sealevel;temperature;humidity
18569;BME280;14780;48.316;-1.050;2022-12-11T00:00:26;98466.81;;;24.94;30.57
18569;BME280;14780;48.316;-1.050;2022-12-11T00:03:11;98462.75;;;24.92;30.66
18569;BME280;14780;48.316;-1.050;2022-12-11T00:05:56;98458.06;;;24.92;30.54
18569;BME280;14780;48.316;-1.050;2022-12-11T00:08:40;98459.25;;;24.86;30.54
18569;BME280;14780;48.316;-1.050;2022-12-11T00:11:25;98457.63;;;24.85;30.54
18569;BME280;14780;48.316;-1.050;2022-12-11T00:14:11;98460.88;;;24.87;30.54
18569;BME280;14780;48.316;-1.050;2022-12-11T00:16:57;98466.13;;;24.84;30.55
18569;BME280;14780;48.316;-1.050;2022-12-11T00:19:41;98462.28;;;24.85;30.43
18569;BME280;14780;48.316;-1.050;2022-12-11T00:22:28;98457.63;;;24.85;30.55
18569;BME280;14780;48.316;-1.050;2022-12-11T00:25:13;98450.50;;;24.84;30.73
18569;BME280;14780;48.316;-1.050;2022-12-11T00:27:57;98450.28;;;24.81;30.66
18569;BME280;14780;48.316;-1.050;2022-12-11T00:30:42;98448.66;;;24.80;30.45
18569;BME280;14780;48.316;-1.050;2022-12-11T00:33:27;98443.50;;;24.78;30.49
18569;BME280;14780;48.316;-1.050;2022-12-11T00:36:19;98434.97;;;24.80;30.53
18569;BME280;14780;48.316;-1.050;2022-12-11T00:39:04;98433.63;;;24.77;30.37
18569;BME280;14780;48.316;-1.050;2022-12-11T00:41:49;98436.09;;;24.79;30.62
18569;BME280;14780;48.316;-1.050;2022-12-11T00:44:34;98434.25;;;24.74;30.42
18569;BME280;14780;48.316;-1.050;2022-12-11T00:47:19;98431.50;;;24.74;30.51
18569;BME280;14780;48.316;-1.050;2022-12-11T00:50:03;98432.09;;;24.71;30.50
18569;BME280;14780;48.316;-1.050;2022-12-11T00:52:48;98427.72;;;24.70;30.32
18569;BME280;14780;48.316;-1.050;2022-12-11T00:55:40;98428.25;;;24.72;30.55
18569;BME280;14780;48.316;-1.050;2022-12-11T00:58:24;98423.34;;;24.69;30.35
18569;BME280;14780;48.316;-1.050;2022-12-11T01:01:16;98425.28;;;24.69;30.62
18569;BME280;14780;48.316;-1.050;2022-12-11T01:04:01;98412.19;;;24.66;30.48
18569;BME280;14780;48.316;-1.050;2022-12-11T01:06:46;98413.00;;;24.66;30.30
18569;BME280;14780;48.316;-1.050;2022-12-11T01:09:31;98411.66;;;24.64;30.41
18569;BME280;14780;48.316;-1.050;2022-12-11T01:12:35;98412.78;;;24.63;30.56
18569;BME280;14780;48.316;-1.050;2022-12-11T01:15:21;98406.56;;;24.57;30.38
18569;BME280;14780;48.316;-1.050;2022-12-11T01:18:06;98402.41;;;24.60;30.46
18569;BME280;14780;48.316;-1.050;2022-12-11T01:20:51;98396.66;;;24.61;30.36
18569;BME280;14780;48.316;-1.050;2022-12-11T01:23:37;98393.91;;;24.61;30.53
18569;BME280;14780;48.316;-1.050;2022-12-11T01:26:22;98407.38;;;24.58;30.67
18569;BME280;14780;48.316;-1.050;2022-12-11T01:29:06;98400.28;;;24.57;30.38
18569;BME280;14780;48.316;-1.050;2022-12-11T01:31:51;98390.16;;;24.57;30.39
18569;BME280;14780;48.316;-1.050;2022-12-11T01:34:35;98389.34;;;24.57;30.61
18569;BME280;14780;48.316;-1.050;2022-12-11T01:37:20;98383.59;;;24.53;30.42
18569;BME280;14780;48.316;-1.050;2022-12-11T01:40:06;98379.50;;;24.56;30.45
18569;BME280;14780;48.316;-1.050;2022-12-11T01:42:52;98384.44;;;24.54;30.42
18569;BME280;14780;48.316;-1.050;2022-12-11T01:45:42;98378.97;;;24.54;30.44
18569;BME280;14780;48.316;-1.050;2022-12-11T01:48:29;98382.81;;;24.53;30.56
18569;BME280;14780;48.316;-1.050;2022-12-11T01:51:16;98378.72;;;24.50;30.34
18569;BME280;14780;48.316;-1.050;2022-12-11T01:54:06;98377.91;;;24.50;30.62
18569;BME280;14780;48.316;-1.050;2022-12-11T01:56:53;98386.09;;;24.50;30.31
18569;BME280;14780;48.316;-1.050;2022-12-11T01:59:42;98386.72;;;24.47;30.63
18569;BME280;14780;48.316;-1.050;2022-12-11T02:02:29;98389.13;;;24.48;30.44
18569;BME280;14780;48.316;-1.050;2022-12-11T02:05:15;98382.84;;;24.48;30.54
18569;BME280;14780;48.316;-1.050;2022-12-11T02:08:01;98385.59;;;24.48;30.54
18569;BME280;14780;48.316;-1.050;2022-12-11T02:11:07;98383.97;;;24.47;30.30
18569;BME280;14780;48.316;-1.050;2022-12-11T02:14:07;98385.66;;;24.43;30.45
18569;BME280;14780;48.316;-1.050;2022-12-11T02:17:32;98387.88;;;24.41;30.64
18569;BME280;14780;48.316;-1.050;2022-12-11T02:20:41;98376.66;;;24.42;30.34
18569;BME280;14780;48.316;-1.050;2022-12-11T02:32:42;98383.28;;;24.36;30.37
18569;BME280;14780;48.316;-1.050;2022-12-11T02:36:02;98370.78;;;24.30;30.70
18569;BME280;14780;48.316;-1.050;2022-12-11T02:38:41;98385.25;;;24.31;30.50
18569;BME280;14780;48.316;-1.050;2022-12-11T02:41:28;98370.78;;;24.30;30.32
18569;BME280;14780;48.316;-1.050;2022-12-11T02:44:15;98370.78;;;24.30;30.35
18569;BME280;14780;48.316;-1.050;2022-12-11T02:47:03;98366.09;;;24.31;30.62
18569;BME280;14780;48.316;-1.050;2022-12-11T02:49:49;98371.06;;;24.29;30.59
18569;BME280;14780;48.316;-1.050;2022-12-11T02:52:36;98366.69;;;24.28;30.52
18569;BME280;14780;48.316;-1.050;2022-12-11T02:55:23;98366.69;;;24.28;30.33
18569;BME280;14780;48.316;-1.050;2022-12-11T02:58:21;98371.09;;;24.24;30.66
18569;BME280;14780;48.316;-1.050;2022-12-11T03:01:07;98366.97;;;24.26;30.45
18569;BME280;14780;48.316;-1.050;2022-12-11T03:03:53;98359.38;;;24.23;30.33
18569;BME280;14780;48.316;-1.050;2022-12-11T03:06:44;98352.28;;;24.22;30.23
18569;BME280;14780;48.316;-1.050;2022-12-11T03:09:32;98356.94;;;24.22;30.56
18569;BME280;14780;48.316;-1.050;2022-12-11T03:12:19;98363.78;;;24.19;30.48
18569;BME280;14780;48.316;-1.050;2022-12-11T03:15:13;98373.09;;;24.18;30.58
18569;BME280;14780;48.316;-1.050;2022-12-11T03:18:08;98372.81;;;24.20;30.29
18569;BME280;14780;48.316;-1.050;2022-12-11T03:21:23;98358.31;;;24.19;30.60
18569;BME280;14780;48.316;-1.050;2022-12-11T03:27:17;98369.03;;;24.16;30.26
18569;BME280;14780;48.316;-1.050;2022-12-11T03:30:18;98365.78;;;24.14;30.45
18569;BME280;14780;48.316;-1.050;2022-12-11T03:33:10;98362.81;;;24.10;30.57
18569;BME280;14780;48.316;-1.050;2022-12-11T03:36:11;98362.25;;;24.13;30.37
18569;BME280;14780;48.316;-1.050;2022-12-11T03:39:10;98364.19;;;24.08;30.60
18569;BME280;14780;48.316;-1.050;2022-12-11T03:41:58;98360.06;;;24.10;30.55
18569;BME280;14780;48.316;-1.050;2022-12-11T03:44:48;98353.00;;;24.09;30.34
18569;BME280;14780;48.316;-1.050;2022-12-11T03:47:34;98350.25;;;24.09;30.41
18569;BME280;14780;48.316;-1.050;2022-12-11T03:50:22;98351.13;;;24.05;30.65
18569;BME280;14780;48.316;-1.050;2022-12-11T03:53:09;98348.91;;;24.07;30.43
18569;BME280;14780;48.316;-1.050;2022-12-11T03:55:56;98337.19;;;24.06;30.58
18569;BME280;14780;48.316;-1.050;2022-12-11T03:58:44;98332.00;;;24.05;30.27
18569;BME280;14780;48.316;-1.050;2022-12-11T04:01:28;98327.09;;;24.02;30.58
18569;BME280;14780;48.316;-1.050;2022-12-11T04:04:13;98323.56;;;24.01;30.47
18569;BME280;14780;48.316;-1.050;2022-12-11T04:06:58;98329.00;;;24.06;30.58
18569;BME280;14780;48.316;-1.050;2022-12-11T04:09:43;98322.47;;;24.02;30.66
18569;BME280;14780;48.316;-1.050;2022-12-11T04:12:27;98319.22;;;24.00;30.46
18569;BME280;14780;48.316;-1.050;2022-12-11T04:15:12;98321.94;;;24.00;30.60
18569;BME280;14780;48.316;-1.050;2022-12-11T04:17:57;98308.06;;;23.97;30.38
18569;BME280;14780;48.316;-1.050;2022-12-11T04:21:00;98312.69;;;23.96;30.30
18569;BME280;14780;48.316;-1.050;2022-12-11T04:24:04;98308.63;;;23.94;30.76
18569;BME280;14780;48.316;-1.050;2022-12-11T04:27:01;98295.78;;;23.94;30.71
18569;BME280;14780;48.316;-1.050;2022-12-11T04:29:45;98305.59;;;23.95;30.25
18569;BME280;14780;48.316;-1.050;2022-12-11T04:32:30;98313.28;;;23.93;30.67
18569;BME280;14780;48.316;-1.050;2022-12-11T04:35:16;98297.69;;;23.94;30.59
18569;BME280;14780;48.316;-1.050;2022-12-11T04:38:01;98302.34;;;23.93;30.68
18569;BME280;14780;48.316;-1.050;2022-12-11T04:40:46;98296.06;;;23.93;30.66
18569;BME280;14780;48.316;-1.050;2022-12-11T04:43:31;98292.53;;;23.92;30.54
18569;BME280;14780;48.316;-1.050;2022-12-11T04:46:21;98292.81;;;23.91;30.56
18569;BME280;14780;48.316;-1.050;2022-12-11T04:49:06;98298.28;;;23.91;30.54
18569;BME280;14780;48.316;-1.050;2022-12-11T04:51:51;98279.44;;;23.89;30.69
18569;BME280;14780;48.316;-1.050;2022-12-11T04:54:36;98284.91;;;23.89;30.27
18569;BME280;14780;48.316;-1.050;2022-12-11T04:57:21;98282.47;;;23.88;30.80
18569;BME280;14780;48.316;-1.050;2022-12-11T05:00:08;98289.31;;;23.85;30.64
18569;BME280;14780;48.316;-1.050;2022-12-11T05:02:54;98287.69;;;23.84;30.75
18569;BME280;14780;48.316;-1.050;2022-12-11T05:05:38;98290.13;;;23.86;30.30
18569;BME280;14780;48.316;-1.050;2022-12-11T05:08:23;98295.88;;;23.84;30.76
18569;BME280;14780;48.316;-1.050;2022-12-11T05:11:11;98284.97;;;23.84;30.79
18569;BME280;14780;48.316;-1.050;2022-12-11T05:13:56;98289.03;;;23.87;30.58
18569;BME280;14780;48.316;-1.050;2022-12-11T05:16:41;98274.03;;;23.84;30.48
18569;BME280;14780;48.316;-1.050;2022-12-11T05:19:26;98275.09;;;23.83;30.38
18569;BME280;14780;48.316;-1.050;2022-12-11T05:22:11;98279.53;;;23.79;30.62
18569;BME280;14780;48.316;-1.050;2022-12-11T05:24:55;98267.00;;;23.78;30.76
18569;BME280;14780;48.316;-1.050;2022-12-11T05:27:40;98271.34;;;23.79;30.61
18569;BME280;14780;48.316;-1.050;2022-12-11T05:30:25;98266.16;;;23.78;30.73
18569;BME280;14780;48.316;-1.050;2022-12-11T05:33:09;98269.19;;;23.76;30.65
18569;BME280;14780;48.316;-1.050;2022-12-11T05:35:54;98264.31;;;23.73;30.49
18569;BME280;14780;48.316;-1.050;2022-12-11T05:38:39;98261.59;;;23.73;30.77
18569;BME280;14780;48.316;-1.050;2022-12-11T05:41:26;98267.03;;;23.73;30.65
18569;BME280;14780;48.316;-1.050;2022-12-11T05:44:12;98259.38;;;23.75;30.63
18569;BME280;14780;48.316;-1.050;2022-12-11T05:46:56;98264.31;;;23.73;30.65
18569;BME280;14780;48.316;-1.050;2022-12-11T05:49:41;98252.56;;;23.73;30.58
18569;BME280;14780;48.316;-1.050;2022-12-11T05:52:27;98253.16;;;23.70;30.59
18569;BME280;14780;48.316;-1.050;2022-12-11T05:55:12;98247.69;;;23.70;30.52
18569;BME280;14780;48.316;-1.050;2022-12-11T05:57:57;98250.69;;;23.68;30.79
18569;BME280;14780;48.316;-1.050;2022-12-11T06:00:42;98244.97;;;23.70;30.72
18569;BME280;14780;48.316;-1.050;2022-12-11T06:03:27;98250.69;;;23.68;30.75
18569;BME280;14780;48.316;-1.050;2022-12-11T06:06:12;98251.03;;;23.67;30.80
18569;BME280;14780;48.316;-1.050;2022-12-11T06:08:58;98247.22;;;23.63;30.60
18569;BME280;14780;48.316;-1.050;2022-12-11T06:11:43;98246.63;;;23.66;30.34
18569;BME280;14780;48.316;-1.050;2022-12-11T06:14:28;98245.31;;;23.63;30.82
18569;BME280;14780;48.316;-1.050;2022-12-11T06:17:12;98244.50;;;23.63;30.52
18569;BME280;14780;48.316;-1.050;2022-12-11T06:19:57;98237.38;;;23.67;30.84
18569;BME280;14780;48.316;-1.050;2022-12-11T06:22:41;98233.81;;;23.66;30.57
18569;BME280;14780;48.316;-1.050;2022-12-11T06:25:27;98237.63;;;23.65;30.82
18569;BME280;14780;48.316;-1.050;2022-12-11T06:28:11;98234.91;;;23.65;30.56
18569;BME280;14780;48.316;-1.050;2022-12-11T06:31:00;98237.94;;;23.64;30.48
18569;BME280;14780;48.316;-1.050;2022-12-11T06:33:45;98242.34;;;23.60;30.42
18569;BME280;14780;48.316;-1.050;2022-12-11T06:36:30;98244.78;;;23.61;30.52
18569;BME280;14780;48.316;-1.050;2022-12-11T06:39:15;98247.81;;;23.60;30.78
18569;BME280;14780;48.316;-1.050;2022-12-11T06:42:00;98239.63;;;23.60;30.61
18569;BME280;14780;48.316;-1.050;2022-12-11T06:44:44;98239.41;;;23.56;30.74
18569;BME280;14780;48.316;-1.050;2022-12-11T06:47:29;98242.91;;;23.57;30.52
18569;BME280;14780;48.316;-1.050;2022-12-11T06:50:14;98236.66;;;23.56;30.75
18569;BME280;14780;48.316;-1.050;2022-12-11T06:52:59;98247.59;;;23.56;30.48
18569;BME280;14780;48.316;-1.050;2022-12-11T06:55:43;98243.75;;;23.57;30.92
18569;BME280;14780;48.316;-1.050;2022-12-11T06:58:28;98235.84;;;23.56;30.93
18569;BME280;14780;48.316;-1.050;2022-12-11T07:01:22;98238.34;;;23.52;30.55
18569;BME280;14780;48.316;-1.050;2022-12-11T07:04:08;98231.47;;;23.55;30.77
18569;BME280;14780;48.316;-1.050;2022-12-11T07:06:53;98232.63;;;23.49;30.76
18569;BME280;14780;48.316;-1.050;2022-12-11T07:09:40;98238.63;;;23.51;30.59
18569;BME280;14780;48.316;-1.050;2022-12-11T07:12:24;98233.97;;;23.51;30.62
18569;BME280;14780;48.316;-1.050;2022-12-11T07:15:09;98230.72;;;23.49;30.61
18569;BME280;14780;48.316;-1.050;2022-12-11T07:17:54;98219.81;;;23.49;30.97
18569;BME280;14780;48.316;-1.050;2022-12-11T07:20:39;98222.53;;;23.49;30.73
18569;BME280;14780;48.316;-1.050;2022-12-11T07:23:23;98227.41;;;23.52;30.97
18569;BME280;14780;48.316;-1.050;2022-12-11T07:26:11;98223.88;;;23.52;30.64
18569;BME280;14780;48.316;-1.050;2022-12-11T07:28:57;98224.97;;;23.51;30.94
18569;BME280;14780;48.316;-1.050;2022-12-11T07:31:42;98218.19;;;23.48;30.82
18569;BME280;14780;48.316;-1.050;2022-12-11T07:34:27;98210.53;;;23.50;31.02
18569;BME280;14780;48.316;-1.050;2022-12-11T07:37:12;98215.97;;;23.50;30.80
18569;BME280;14780;48.316;-1.050;2022-12-11T07:39:57;98209.69;;;23.50;31.09
18569;BME280;14780;48.316;-1.050;2022-12-11T07:42:41;98212.72;;;23.48;30.80
18569;BME280;14780;48.316;-1.050;2022-12-11T07:45:27;98215.75;;;23.47;31.09
18569;BME280;14780;48.316;-1.050;2022-12-11T07:48:13;98217.13;;;23.44;31.09
18569;BME280;14780;48.316;-1.050;2022-12-11T07:51:12;98224.22;;;23.45;30.70
18569;BME280;14780;48.316;-1.050;2022-12-11T07:54:03;98227.47;;;23.47;31.09
18569;BME280;14780;48.316;-1.050;2022-12-11T07:56:48;98229.41;;;23.47;31.20
18569;BME280;14780;48.316;-1.050;2022-12-11T07:59:33;98226.94;;;23.45;31.05
18569;BME280;14780;48.316;-1.050;2022-12-11T08:02:18;98228.06;;;23.44;30.81
18569;BME280;14780;48.316;-1.050;2022-12-11T08:05:04;98228.88;;;23.45;31.21
18569;BME280;14780;48.316;-1.050;2022-12-11T08:07:48;98222.94;;;23.38;30.83
18569;BME280;14780;48.316;-1.050;2022-12-11T08:10:34;98225.91;;;23.42;30.78
18569;BME280;14780;48.316;-1.050;2022-12-11T08:13:19;98221.28;;;23.37;31.07
18569;BME280;14780;48.316;-1.050;2022-12-11T08:16:09;98213.41;;;23.36;31.07
18569;BME280;14780;48.316;-1.050;2022-12-11T08:18:54;98216.66;;;23.38;30.69
18569;BME280;14780;48.316;-1.050;2022-12-11T08:21:39;98214.44;;;23.39;30.78
18569;BME280;14780;48.316;-1.050;2022-12-11T08:24:24;98206.56;;;23.38;31.25
18569;BME280;14780;48.316;-1.050;2022-12-11T08:27:09;98212.81;;;23.38;31.00
18569;BME280;14780;48.316;-1.050;2022-12-11T08:29:54;98215.03;;;23.37;31.31
18569;BME280;14780;48.316;-1.050;2022-12-11T08:32:39;98211.94;;;23.43;31.30
18569;BME280;14780;48.316;-1.050;2022-12-11T08:35:24;98207.31;;;23.43;31.00
18569;BME280;14780;48.316;-1.050;2022-12-11T08:38:09;98210.28;;;23.47;31.12
18569;BME280;14780;48.316;-1.050;2022-12-11T08:40:54;98204.00;;;23.46;31.25
18569;BME280;14780;48.316;-1.050;2022-12-11T08:43:39;98205.06;;;23.50;31.28
18569;BME280;14780;48.316;-1.050;2022-12-11T08:46:29;98202.84;;;23.52;31.21
18569;BME280;14780;48.316;-1.050;2022-12-11T08:49:14;98202.47;;;23.59;30.94
18569;BME280;14780;48.316;-1.050;2022-12-11T08:51:59;98198.50;;;23.51;30.75
18569;BME280;14780;48.316;-1.050;2022-12-11T08:54:43;98189.69;;;23.54;30.73
18569;BME280;14780;48.316;-1.050;2022-12-11T08:57:28;98197.09;;;23.54;30.82
18569;BME280;14780;48.316;-1.050;2022-12-11T09:00:13;98199.91;;;23.67;30.59
18569;BME280;14780;48.316;-1.050;2022-12-11T09:03:02;98199.50;;;23.55;31.15
18569;BME280;14780;48.316;-1.050;2022-12-11T09:05:47;98202.25;;;23.55;30.88
18569;BME280;14780;48.316;-1.050;2022-12-11T09:08:32;98204.69;;;23.57;30.90
18569;BME280;14780;48.316;-1.050;2022-12-11T09:11:20;98192.97;;;23.56;31.28
18569;BME280;14780;48.316;-1.050;2022-12-11T09:14:06;98195.88;;;23.88;30.78
18569;BME280;14780;48.316;-1.050;2022-12-11T09:16:51;98191.69;;;23.72;31.18
18569;BME280;14780;48.316;-1.050;2022-12-11T09:19:35;98186.50;;;23.94;30.62
18569;BME280;14780;48.316;-1.050;2022-12-11T09:22:20;98187.22;;;23.76;31.22
18569;BME280;14780;48.316;-1.050;2022-12-11T09:25:05;98183.94;;;23.79;31.26
18569;BME280;14780;48.316;-1.050;2022-12-11T09:27:50;98179.50;;;23.83;31.38
18569;BME280;14780;48.316;-1.050;2022-12-11T09:30:35;98191.91;;;23.99;31.30
18569;BME280;14780;48.316;-1.050;2022-12-11T09:33:19;98186.03;;;23.87;31.53
18569;BME280;14780;48.316;-1.050;2022-12-11T09:36:05;98195.88;;;23.88;31.82
18569;BME280;14780;48.316;-1.050;2022-12-11T09:38:50;98193.13;;;23.88;31.66
18569;BME280;14780;48.316;-1.050;2022-12-11T09:44:47;98199.09;;;23.90;31.51
18569;BME280;14780;48.316;-1.050;2022-12-11T09:47:42;98202.94;;;23.89;31.60
18569;BME280;14780;48.316;-1.050;2022-12-11T09:50:31;98196.91;;;23.92;31.59
18569;BME280;14780;48.316;-1.050;2022-12-11T09:53:30;98207.31;;;23.90;31.71
18569;BME280;14780;48.316;-1.050;2022-12-11T09:56:31;98210.03;;;23.90;31.56
18569;BME280;14780;48.316;-1.050;2022-12-11T10:05:35;98203.22;;;23.88;31.79
18569;BME280;14780;48.316;-1.050;2022-12-11T10:08:53;98208.91;;;23.91;31.70
18569;BME280;14780;48.316;-1.050;2022-12-11T10:18:20;98201.78;;;23.95;31.63
18569;BME280;14780;48.316;-1.050;2022-12-11T10:21:06;98205.84;;;23.98;31.56
18569;BME280;14780;48.316;-1.050;2022-12-11T10:23:59;98207.47;;;23.99;31.79
18569;BME280;14780;48.316;-1.050;2022-12-11T10:26:45;98205.84;;;23.98;31.95
18569;BME280;14780;48.316;-1.050;2022-12-11T10:29:30;98202.28;;;23.97;31.75
18569;BME280;14780;48.316;-1.050;2022-12-11T10:32:22;98197.38;;;23.99;32.07
18569;BME280;14780;48.316;-1.050;2022-12-11T10:35:18;98195.38;;;24.05;31.94
18569;BME280;14780;48.316;-1.050;2022-12-11T10:41:10;98189.31;;;24.08;32.42
18569;BME280;14780;48.316;-1.050;2022-12-11T10:43:56;98187.69;;;24.07;32.71
18569;BME280;14780;48.316;-1.050;2022-12-11T10:46:41;98179.19;;;24.08;32.56
18569;BME280;14780;48.316;-1.050;2022-12-11T10:49:29;98178.03;;;24.14;32.94
18569;BME280;14780;48.316;-1.050;2022-12-11T10:55:24;98183.78;;;24.13;32.60
18569;BME280;14780;48.316;-1.050;2022-12-11T10:58:19;98182.94;;;24.12;32.62
18569;BME280;14780;48.316;-1.050;2022-12-11T11:01:06;98186.88;;;24.06;32.30
18569;BME280;14780;48.316;-1.050;2022-12-11T11:04:12;98182.59;;;24.00;32.36
18569;BME280;14780;48.316;-1.050;2022-12-11T11:10:09;98180.44;;;23.97;32.55
18569;BME280;14780;48.316;-1.050;2022-12-11T11:13:01;98187.00;;;23.96;32.36
18569;BME280;14780;48.316;-1.050;2022-12-11T11:15:47;98186.50;;;23.94;32.48
18569;BME280;14780;48.316;-1.050;2022-12-11T11:18:32;98171.13;;;23.98;32.04
18569;BME280;14780;48.316;-1.050;2022-12-11T11:21:19;98181.81;;;23.95;32.20
18569;BME280;14780;48.316;-1.050;2022-12-11T11:24:05;98174.50;;;23.90;32.18
18569;BME280;14780;48.316;-1.050;2022-12-11T11:26:50;98171.56;;;23.87;32.51
18569;BME280;14780;48.316;-1.050;2022-12-11T11:29:35;98169.94;;;23.86;32.36
18569;BME280;14780;48.316;-1.050;2022-12-11T11:32:40;98171.78;;;23.90;32.16
18569;BME280;14780;48.316;-1.050;2022-12-11T11:35:27;98171.50;;;23.92;32.34
18569;BME280;14780;48.316;-1.050;2022-12-11T11:38:30;98169.00;;;23.95;32.14
18569;BME280;14780;48.316;-1.050;2022-12-11T11:41:23;98170.38;;;23.93;32.39
18569;BME280;14780;48.316;-1.050;2022-12-11T11:44:12;98170.38;;;23.93;32.36
18569;BME280;14780;48.316;-1.050;2022-12-11T11:47:13;98171.50;;;23.92;32.54
18569;BME280;14780;48.316;-1.050;2022-12-11T11:50:24;98156.16;;;23.96;32.46
18569;BME280;14780;48.316;-1.050;2022-12-11T11:53:27;98166.19;;;24.00;32.78
18569;BME280;14780;48.316;-1.050;2022-12-11T11:59:07;98161.19;;;24.07;32.84
18569;BME280;14780;48.316;-1.050;2022-12-11T12:01:56;98162.19;;;24.11;33.20
18569;BME280;14780;48.316;-1.050;2022-12-11T12:04:43;98156.81;;;24.06;33.37
18569;BME280;14780;48.316;-1.050;2022-12-11T12:14:12;98136.13;;;24.19;33.53
18569;BME280;14780;48.316;-1.050;2022-12-11T12:20:34;98121.31;;;24.38;33.98
18569;BME280;14780;48.316;-1.050;2022-12-11T12:26:31;98116.91;;;24.42;33.89
18569;BME280;14780;48.316;-1.050;2022-12-11T12:35:33;98109.28;;;24.39;33.61
18569;BME280;14780;48.316;-1.050;2022-12-11T12:38:52;98104.19;;;24.33;33.88
18569;BME280;14780;48.316;-1.050;2022-12-11T12:41:56;98100.22;;;24.25;34.00
18569;BME280;14780;48.316;-1.050;2022-12-11T12:47:58;98105.56;;;24.17;33.86
18569;BME280;14780;48.316;-1.050;2022-12-11T12:50:46;98105.84;;;24.15;33.78
18569;BME280;14780;48.316;-1.050;2022-12-11T12:53:34;98104.53;;;24.13;33.82
18569;BME280;14780;48.316;-1.050;2022-12-11T12:56:21;98103.47;;;24.09;34.02
18569;BME280;14780;48.316;-1.050;2022-12-11T12:59:25;98105.19;;;24.05;33.89
18569;BME280;14780;48.316;-1.050;2022-12-11T13:02:14;98099.00;;;23.99;33.64
18569;BME280;14780;48.316;-1.050;2022-12-11T13:05:16;98091.38;;;23.96;33.60
18569;BME280;14780;48.316;-1.050;2022-12-11T13:08:04;98088.94;;;23.95;33.65
18569;BME280;14780;48.316;-1.050;2022-12-11T13:11:02;98082.97;;;23.93;33.53
18569;BME280;14780;48.316;-1.050;2022-12-11T13:16:50;98087.63;;;23.92;33.57
18569;BME280;14780;48.316;-1.050;2022-12-11T13:19:35;98082.75;;;23.89;33.46
18569;BME280;14780;48.316;-1.050;2022-12-11T13:22:22;98084.97;;;23.87;33.58
18569;BME280;14780;48.316;-1.050;2022-12-11T13:25:29;98084.16;;;23.87;33.39
18569;BME280;14780;48.316;-1.050;2022-12-11T13:28:27;98088.00;;;23.86;33.55
18569;BME280;14780;48.316;-1.050;2022-12-11T13:36:53;98079.41;;;23.74;32.96
18569;BME280;14780;48.316;-1.050;2022-12-11T13:39:38;98085.16;;;23.72;33.04
18569;BME280;14780;48.316;-1.050;2022-12-11T13:42:33;98074.31;;;23.67;33.29
18569;BME280;14780;48.316;-1.050;2022-12-11T13:45:25;98076.75;;;23.69;33.10
18569;BME280;14780;48.316;-1.050;2022-12-11T13:48:18;98078.97;;;23.67;33.09
18569;BME280;14780;48.316;-1.050;2022-12-11T13:51:06;98068.56;;;23.69;33.43
18569;BME280;14780;48.316;-1.050;2022-12-11T13:57:03;98079.69;;;23.72;33.36
18569;BME280;14780;48.316;-1.050;2022-12-11T13:59:57;98066.09;;;23.67;33.17
18569;BME280;14780;48.316;-1.050;2022-12-11T14:02:43;98069.66;;;23.68;33.16
18569;BME280;14780;48.316;-1.050;2022-12-11T14:05:28;98069.94;;;23.66;33.32
18569;BME280;14780;48.316;-1.050;2022-12-11T14:08:23;98067.50;;;23.65;33.44
18569;BME280;14780;48.316;-1.050;2022-12-11T14:11:22;98066.63;;;23.69;33.01
18569;BME280;14780;48.316;-1.050;2022-12-11T14:17:14;98056.81;;;23.68;33.42
18569;BME280;14780;48.316;-1.050;2022-12-11T14:20:04;98065.00;;;23.68;33.44
18569;BME280;14780;48.316;-1.050;2022-12-11T14:22:51;98068.03;;;23.85;33.12
18569;BME280;14780;48.316;-1.050;2022-12-11T14:25:36;98061.03;;;23.79;33.01
18569;BME280;14780;48.316;-1.050;2022-12-11T14:28:22;98063.31;;;23.72;32.99
18569;BME280;14780;48.316;-1.050;2022-12-11T14:31:46;98057.91;;;23.67;33.03
18569;BME280;14780;48.316;-1.050;2022-12-11T14:34:31;98060.13;;;23.65;33.30
18569;BME280;14780;48.316;-1.050;2022-12-11T14:37:20;98062.88;;;23.65;33.28
18569;BME280;14780;48.316;-1.050;2022-12-11T14:40:13;98060.13;;;23.65;32.98
18569;BME280;14780;48.316;-1.050;2022-12-11T14:43:02;98065.59;;;23.65;33.25
18569;BME280;14780;48.316;-1.050;2022-12-11T14:45:57;98057.19;;;23.62;33.22
18569;BME280;14780;48.316;-1.050;2022-12-11T14:48:54;98061.31;;;23.59;33.06
18569;BME280;14780;48.316;-1.050;2022-12-11T14:51:42;98063.53;;;23.57;32.81
18569;BME280;14780;48.316;-1.050;2022-12-11T14:54:34;98065.16;;;23.58;32.81
18569;BME280;14780;48.316;-1.050;2022-12-11T14:57:27;98075.03;;;23.54;32.65
18569;BME280;14780;48.316;-1.050;2022-12-11T15:00:32;98059.75;;;23.53;33.01
18569;BME280;14780;48.316;-1.050;2022-12-11T15:03:23;98065.53;;;23.52;32.84
18569;BME280;14780;48.316;-1.050;2022-12-11T15:06:43;98071.19;;;23.55;33.10
18569;BME280;14780;48.316;-1.050;2022-12-11T15:09:36;98066.78;;;23.59;33.30
18569;BME280;14780;48.316;-1.050;2022-12-11T15:12:21;98063.22;;;23.59;32.94
18569;BME280;14780;48.316;-1.050;2022-12-11T15:15:14;98067.59;;;23.60;33.21
18569;BME280;14780;48.316;-1.050;2022-12-11T15:18:01;98069.44;;;23.64;33.04
18569;BME280;14780;48.316;-1.050;2022-12-11T15:20:56;98063.44;;;23.62;32.71
18569;BME280;14780;48.316;-1.050;2022-12-11T15:26:44;98067.59;;;23.60;32.80
18569;BME280;14780;48.316;-1.050;2022-12-11T15:29:38;98069.50;;;23.59;32.56
18569;BME280;14780;48.316;-1.050;2022-12-11T15:32:23;98077.97;;;23.58;32.93
18569;BME280;14780;48.316;-1.050;2022-12-11T15:35:24;98073.13;;;23.55;32.61
18569;BME280;14780;48.316;-1.050;2022-12-11T15:38:38;98080.47;;;23.54;32.89
18569;BME280;14780;48.316;-1.050;2022-12-11T15:41:25;98081.53;;;23.58;32.90
18569;BME280;14780;48.316;-1.050;2022-12-11T15:44:18;98076.66;;;23.55;32.60
18569;BME280;14780;48.316;-1.050;2022-12-11T15:47:42;98072.91;;;23.51;32.91
18569;BME280;14780;48.316;-1.050;2022-12-11T15:50:28;98070.44;;;23.50;32.58
18569;BME280;14780;48.316;-1.050;2022-12-11T15:53:13;98064.75;;;23.46;32.61
18569;BME280;14780;48.316;-1.050;2022-12-11T15:55:59;98065.88;;;23.45;32.67
18569;BME280;14780;48.316;-1.050;2022-12-11T15:58:45;98070.22;;;23.46;32.67
18569;BME280;14780;48.316;-1.050;2022-12-11T16:01:30;98059.41;;;23.42;32.80
18569;BME280;14780;48.316;-1.050;2022-12-11T16:04:15;98070.69;;;24.09;31.65